Time;durP1;ratioP1;P1;durP2;ratioP2;P2;SDS_P1;SDS_P2;PMS_P1;PMS_P2;Temp;Humidity;BMP_temperature;BMP_pressure;BME280_temperature;BME280_humidity;BME280_pressure;Samples;Min_cycle;Max_cycle;Signal;HPM_P1;HPM_P2
2021/12/01 00:01:17;;;;;;;0.97;0.77;;;5.60;99.90;;;;;;5091903;28;20519;-69
2021/12/01 00:03:44;;;;;;;0.97;0.87;;;5.50;99.90;;;;;;5091769;28;20455;-69
2021/12/01 00:06:11;;;;;;;1.07;0.80;;;5.50;99.90;;;;;;5092460;28;20451;-70
2021/12/01 00:08:39;;;;;;;1.00;0.70;;;5.40;99.90;;;;;;5091995;28;20527;-70
2021/12/01 00:11:06;;;;;;;1.30;0.97;;;5.40;99.90;;;;;;5092267;28;20531;-69
2021/12/01 00:13:33;;;;;;;1.20;0.97;;;5.40;99.90;;;;;;5091794;28;20441;-70
2021/12/01 00:16:01;;;;;;;1.30;0.73;;;5.40;99.90;;;;;;5091225;28;20475;-70
2021/12/01 00:18:30;;;;;;;1.10;0.80;;;5.40;99.90;;;;;;5091635;28;20532;-69
2021/12/01 00:20:58;;;;;;;1.13;0.77;;;5.40;99.90;;;;;;5091496;28;20479;-69
2021/12/01 00:23:25;;;;;;;1.20;1.00;;;5.30;99.90;;;;;;5092044;28;20441;-70
2021/12/01 00:25:52;;;;;;;1.10;1.00;;;5.40;99.90;;;;;;5091404;28;20527;-69
2021/12/01 00:28:19;;;;;;;1.93;0.87;;;5.40;99.90;;;;;;5091782;28;20452;-69
2021/12/01 00:30:46;;;;;;;1.20;0.80;;;5.40;99.90;;;;;;5091068;28;21020;-69
2021/12/01 00:33:17;;;;;;;1.70;1.00;;;5.40;99.90;;;;;;5091321;28;20467;-69
2021/12/01 00:35:45;;;;;;;0.90;0.70;;;5.40;99.90;;;;;;5090740;28;20475;-69
2021/12/01 00:38:12;;;;;;;1.00;0.80;;;5.30;99.90;;;;;;5091994;28;20532;-70
2021/12/01 00:40:39;;;;;;;1.57;1.37;;;5.30;99.90;;;;;;5091340;28;20834;-69
2021/12/01 00:43:06;;;;;;;0.70;0.50;;;5.30;99.90;;;;;;5091623;28;20936;-70
2021/12/01 00:45:33;;;;;;;0.97;0.87;;;5.30;99.90;;;;;;5091417;28;20539;-69
2021/12/01 00:48:00;;;;;;;1.10;0.70;;;5.40;99.90;;;;;;5090382;28;20476;-69
2021/12/01 00:50:30;;;;;;;0.80;0.60;;;5.40;99.90;;;;;;5091645;28;20616;-69
2021/12/01 00:53:00;;;;;;;1.00;0.90;;;5.40;99.90;;;;;;5091381;28;20441;-69
2021/12/01 00:55:28;;;;;;;0.93;0.70;;;5.30;99.90;;;;;;5091157;28;20464;-70
2021/12/01 00:57:56;;;;;;;1.57;1.03;;;5.30;99.90;;;;;;5090826;28;20440;-69
2021/12/01 01:00:25;;;;;;;1.17;0.60;;;5.30;99.90;;;;;;5091371;28;20531;-69
2021/12/01 01:02:53;;;;;;;1.10;0.80;;;5.20;99.90;;;;;;5087148;28;20445;-69
2021/12/01 01:05:21;;;;;;;1.17;0.90;;;5.20;99.90;;;;;;5091169;28;20475;-69
2021/12/01 01:07:47;;;;;;;1.43;1.00;;;5.20;99.90;;;;;;5090800;28;20442;-69
2021/12/01 01:10:29;;;;;;;1.90;1.30;;;5.20;99.90;;;;;;5091154;28;20483;-69
2021/12/01 01:18:29;;;;;;;0.90;0.80;;;5.30;99.90;;;;;;5079800;28;20971;-69
2021/12/01 01:20:56;;;;;;;1.03;0.73;;;5.30;99.90;;;;;;5090618;28;20947;-69
2021/12/01 01:23:24;;;;;;;0.90;0.60;;;5.40;99.90;;;;;;5090895;28;20530;-69
2021/12/01 01:25:52;;;;;;;0.80;0.80;;;5.30;99.90;;;;;;5090941;28;20536;-69
2021/12/01 01:28:19;;;;;;;0.90;0.70;;;5.40;99.90;;;;;;5090527;28;20516;-69
2021/12/01 01:30:46;;;;;;;1.00;0.70;;;5.40;99.90;;;;;;5090655;28;20511;-69
2021/12/01 01:33:13;;;;;;;1.10;0.80;;;5.40;99.90;;;;;;5090622;28;20452;-68
2021/12/01 01:35:40;;;;;;;0.80;0.70;;;5.50;99.90;;;;;;5090878;28;20482;-69
2021/12/01 01:38:07;;;;;;;1.13;0.77;;;5.50;99.90;;;;;;5090813;28;20517;-69
2021/12/01 01:40:34;;;;;;;1.10;0.87;;;5.50;99.90;;;;;;5090645;28;20464;-69
2021/12/01 01:43:03;;;;;;;0.80;0.70;;;5.60;99.90;;;;;;5101835;28;20456;-69
2021/12/01 01:45:30;;;;;;;1.43;1.10;;;5.50;99.90;;;;;;5097861;28;20540;-69
2021/12/01 01:48:00;;;;;;;1.50;1.07;;;5.50;99.90;;;;;;5090470;28;20463;-69
2021/12/01 01:50:36;;;;;;;1.37;0.90;;;5.50;99.90;;;;;;5091199;28;20420;-69
2021/12/01 01:53:05;;;;;;;1.30;1.00;;;5.50;99.90;;;;;;5090216;28;20523;-69
2021/12/01 01:55:33;;;;;;;1.37;1.27;;;5.50;99.90;;;;;;5090614;28;20471;-69
2021/12/01 01:58:01;;;;;;;3.93;1.20;;;5.60;99.90;;;;;;5090266;28;20523;-69
2021/12/01 02:00:29;;;;;;;1.50;1.30;;;5.50;99.90;;;;;;5090976;28;20444;-70
2021/12/01 02:02:58;;;;;;;2.20;1.57;;;5.50;99.90;;;;;;5089951;28;21036;-69
2021/12/01 02:05:25;;;;;;;1.13;0.90;;;5.60;99.90;;;;;;5090918;28;20525;-69
2021/12/01 02:07:53;;;;;;;1.30;1.20;;;5.60;99.90;;;;;;5089446;28;20539;-69
2021/12/01 02:10:20;;;;;;;1.37;1.27;;;5.60;99.90;;;;;;5090974;28;20466;-70
2021/12/01 02:12:47;;;;;;;4.27;1.40;;;5.60;99.90;;;;;;5094073;28;20523;-70
2021/12/01 02:15:16;;;;;;;3.90;1.27;;;5.70;99.90;;;;;;5094401;28;20557;-70
2021/12/01 02:17:43;;;;;;;1.77;1.20;;;5.70;99.90;;;;;;5094111;28;20471;-70
2021/12/01 02:20:19;;;;;;;1.27;1.10;;;5.70;99.90;;;;;;5094593;28;20456;-71
2021/12/01 02:22:46;;;;;;;1.73;1.10;;;5.70;99.90;;;;;;5093476;28;20433;-69
2021/12/01 02:25:13;;;;;;;1.53;1.07;;;5.70;99.90;;;;;;5094434;28;20469;-70
2021/12/01 02:27:40;;;;;;;1.20;1.10;;;5.70;99.90;;;;;;5094273;28;20527;-69
2021/12/01 02:30:08;;;;;;;1.40;0.97;;;5.80;99.90;;;;;;5093986;28;20497;-70
2021/12/01 02:32:35;;;;;;;1.30;1.00;;;5.80;99.90;;;;;;5094219;28;20505;-70
2021/12/01 02:35:02;;;;;;;1.90;1.00;;;5.80;99.90;;;;;;5093185;28;20511;-69
2021/12/01 02:37:31;;;;;;;1.07;0.80;;;5.80;99.90;;;;;;5094460;28;20445;-71
2021/12/01 02:39:58;;;;;;;1.00;0.90;;;6.00;94.20;;;;;;5093584;28;20535;-70
2021/12/01 02:42:25;;;;;;;1.40;1.10;;;5.90;49.70;;;;;;5094070;28;21027;-70
2021/12/01 02:44:52;;;;;;;1.07;0.77;;;5.80;99.90;;;;;;5093441;28;20532;-70
2021/12/01 02:47:19;;;;;;;1.23;0.83;;;5.80;99.90;;;;;;5093926;28;20468;-70
2021/12/01 02:49:46;;;;;;;1.70;0.80;;;5.80;86.10;;;;;;5093351;28;20844;-70
2021/12/01 02:52:15;;;;;;;1.40;1.00;;;5.90;90.50;;;;;;5093952;28;20444;-70
2021/12/01 02:54:43;;;;;;;1.37;1.00;;;6.00;81.90;;;;;;5094195;28;20447;-70
2021/12/01 02:57:10;;;;;;;0.90;0.80;;;6.00;28.40;;;;;;5093371;28;20571;-70
2021/12/01 02:59:38;;;;;;;1.00;0.80;;;6.00;1.00;;;;;;5093533;28;20563;-70
2021/12/01 03:02:06;;;;;;;1.47;1.10;;;6.00;1.00;;;;;;5092581;28;20444;-70
2021/12/01 03:04:35;;;;;;;1.00;0.80;;;6.00;1.00;;;;;;5093493;28;20520;-70
2021/12/01 03:07:04;;;;;;;2.50;0.80;;;6.00;1.00;;;;;;5093103;28;20449;-71
2021/12/01 03:09:30;;;;;;;1.30;1.20;;;6.10;1.00;;;;;;5093510;28;20468;-70
2021/12/01 03:11:59;;;;;;;1.70;1.10;;;6.10;1.00;;;;;;5093437;28;20444;-70
2021/12/01 03:14:26;;;;;;;0.97;0.80;;;6.10;1.00;;;;;;5093715;28;20528;-70
2021/12/01 03:16:54;;;;;;;1.00;0.83;;;6.20;1.00;;;;;;5093031;28;20928;-70
2021/12/01 03:19:22;;;;;;;2.00;0.90;;;6.10;1.00;;;;;;5093273;28;20479;-70
2021/12/01 03:21:49;;;;;;;1.13;0.80;;;6.10;1.00;;;;;;5092419;28;21036;-70
2021/12/01 03:24:16;;;;;;;0.80;0.77;;;6.20;1.00;;;;;;5093366;28;20788;-70
2021/12/01 03:26:43;;;;;;;1.80;0.93;;;6.20;1.00;;;;;;5093355;28;20967;-70
2021/12/01 03:29:14;;;;;;;1.00;0.80;;;6.20;1.00;;;;;;5092534;28;20514;-70
2021/12/01 03:31:41;;;;;;;1.40;0.90;;;6.20;1.00;;;;;;5093347;28;20850;-70
2021/12/01 03:34:10;;;;;;;2.30;0.87;;;6.20;1.00;;;;;;5092136;28;20495;-70
2021/12/01 03:36:37;;;;;;;1.00;0.90;;;6.20;1.00;;;;;;5092776;28;20472;-71
2021/12/01 03:39:05;;;;;;;1.10;1.00;;;6.20;1.00;;;;;;5092610;28;20536;-70
2021/12/01 03:41:33;;;;;;;1.67;0.80;;;6.20;1.00;;;;;;5093028;28;20802;-71
2021/12/01 03:44:01;;;;;;;1.40;0.80;;;6.10;1.00;;;;;;5092035;28;20453;-70
2021/12/01 03:46:29;;;;;;;3.63;0.90;;;6.10;1.00;;;;;;5092771;28;20444;-71
2021/12/01 03:48:56;;;;;;;2.10;0.97;;;6.20;1.00;;;;;;5092064;28;20543;-71
2021/12/01 03:51:23;;;;;;;1.00;0.83;;;6.10;1.00;;;;;;5092940;28;20445;-71
2021/12/01 03:53:50;;;;;;;1.50;1.00;;;6.20;1.00;;;;;;5091963;28;20455;-69
2021/12/01 03:56:19;;;;;;;1.13;0.93;;;6.20;1.00;;;;;;5092458;28;20499;-71
2021/12/01 03:58:46;;;;;;;1.07;0.90;;;6.20;1.00;;;;;;5092500;28;20440;-71
2021/12/01 04:01:13;;;;;;;1.20;1.10;;;6.30;1.00;;;;;;5092135;28;20524;-71
2021/12/01 04:03:41;;;;;;;1.40;0.90;;;6.30;1.00;;;;;;5092756;28;20551;-71
2021/12/01 04:06:08;;;;;;;1.40;0.90;;;6.30;1.00;;;;;;5091648;28;20444;-72
2021/12/01 04:08:36;;;;;;;1.23;1.00;;;6.40;1.00;;;;;;5092259;28;20514;-71
2021/12/01 04:11:03;;;;;;;1.10;1.00;;;6.40;1.00;;;;;;5092108;28;20528;-71
2021/12/01 04:13:29;;;;;;;2.33;0.97;;;6.40;1.00;;;;;;5092273;28;20440;-71
2021/12/01 04:15:56;;;;;;;1.00;0.70;;;6.40;1.00;;;;;;5091594;28;20472;-71
2021/12/01 04:18:23;;;;;;;0.87;0.60;;;6.40;1.00;;;;;;5092085;28;20453;-71
2021/12/01 04:20:52;;;;;;;1.93;1.10;;;6.40;1.00;;;;;;5092084;28;20444;-73
2021/12/01 04:23:19;;;;;;;2.30;0.83;;;6.30;1.00;;;;;;5091950;28;20460;-71
2021/12/01 04:25:46;;;;;;;1.20;0.90;;;6.40;1.00;;;;;;5091893;28;20853;-71
2021/12/01 04:28:13;;;;;;;1.37;0.90;;;6.40;1.00;;;;;;5091419;28;20463;-71
2021/12/01 04:30:40;;;;;;;1.47;1.00;;;6.40;1.00;;;;;;5091376;28;20480;-71
2021/12/01 04:33:07;;;;;;;1.17;1.00;;;6.40;1.00;;;;;;5090182;28;20453;-70
2021/12/01 04:35:34;;;;;;;1.40;1.10;;;6.40;1.00;;;;;;5090675;28;20552;-71
2021/12/01 04:38:03;;;;;;;2.90;1.20;;;6.50;1.00;;;;;;5091576;28;20449;-71
2021/12/01 04:40:30;;;;;;;1.40;0.90;;;6.50;1.00;;;;;;5092103;28;20494;-71
2021/12/01 04:42:57;;;;;;;1.00;0.80;;;6.50;1.00;;;;;;5091302;28;20536;-70
2021/12/01 04:45:25;;;;;;;1.10;1.00;;;6.40;1.00;;;;;;5091710;28;20531;-70
2021/12/01 04:47:54;;;;;;;1.50;1.20;;;6.40;1.00;;;;;;5092056;28;20486;-71
2021/12/01 04:50:23;;;;;;;1.90;1.10;;;6.40;1.00;;;;;;5091654;28;20456;-71
2021/12/01 04:52:54;;;;;;;1.70;0.97;;;6.50;1.00;;;;;;5091559;28;20521;-71
2021/12/01 04:55:22;;;;;;;1.20;0.80;;;6.50;1.00;;;;;;5091953;28;20470;-71
2021/12/01 04:57:49;;;;;;;1.20;0.80;;;6.60;1.00;;;;;;5099113;28;20483;-71
2021/12/01 05:00:19;;;;;;;1.40;1.20;;;6.60;1.00;;;;;;5098210;28;20817;-70
2021/12/01 05:02:46;;;;;;;1.47;1.20;;;6.50;1.00;;;;;;5101018;28;20535;-71
2021/12/01 05:05:13;;;;;;;3.43;1.23;;;6.50;1.00;;;;;;5091219;28;20542;-71
2021/12/01 05:07:39;;;;;;;1.20;0.80;;;6.60;1.00;;;;;;5091392;28;20449;-71
2021/12/01 05:10:07;;;;;;;1.57;1.07;;;6.60;1.00;;;;;;5091206;28;20447;-71
2021/12/01 05:12:37;;;;;;;1.23;0.97;;;6.60;1.00;;;;;;5091657;28;20874;-71
2021/12/01 05:15:04;;;;;;;3.37;1.17;;;6.70;1.00;;;;;;5090327;28;20493;-71
2021/12/01 05:17:31;;;;;;;1.10;0.83;;;6.70;1.00;;;;;;5091179;28;20502;-72
2021/12/01 05:19:59;;;;;;;1.40;1.00;;;6.70;1.00;;;;;;5090915;28;20936;-72
2021/12/01 05:22:26;;;;;;;1.20;0.90;;;6.70;1.00;;;;;;5091475;28;20520;-70
2021/12/01 05:24:54;;;;;;;1.23;0.70;;;6.70;1.00;;;;;;5091518;28;20448;-71
2021/12/01 05:27:21;;;;;;;1.13;0.80;;;6.70;1.00;;;;;;5091177;28;20459;-70
2021/12/01 05:29:49;;;;;;;0.90;0.70;;;6.70;1.00;;;;;;5091183;28;20436;-71
2021/12/01 05:32:16;;;;;;;1.00;0.70;;;6.70;1.00;;;;;;5090623;28;20857;-70
2021/12/01 05:34:43;;;;;;;1.30;0.97;;;6.70;1.00;;;;;;5090928;28;20506;-69
2021/12/01 05:37:10;;;;;;;1.23;0.80;;;6.70;1.00;;;;;;5090361;28;20481;-72
2021/12/01 05:39:39;;;;;;;0.90;0.70;;;6.90;99.90;;;;;;5091648;28;20527;-72
2021/12/01 05:42:07;;;;;;;0.90;0.60;;;6.90;99.90;;;;;;5090679;28;20436;-72
2021/12/01 05:44:34;;;;;;;1.83;0.87;;;6.90;99.90;;;;;;5090984;28;20443;-71
2021/12/01 05:47:03;;;;;;;0.90;0.80;;;7.00;99.90;;;;;;5094168;28;20825;-71
2021/12/01 05:49:30;;;;;;;0.77;0.57;;;7.00;1.00;;;;;;5095396;28;20445;-73
2021/12/01 05:51:57;;;;;;;1.00;0.70;;;7.10;1.00;;;;;;5095072;28;20535;-69
2021/12/01 05:54:24;;;;;;;8.70;6.23;;;7.00;28.10;;;;;;5095405;28;20447;-69
2021/12/01 05:56:52;;;;;;;0.90;0.90;;;7.10;23.40;;;;;;5094930;28;20475;-71
2021/12/01 05:59:18;;;;;;;1.40;0.80;;;7.20;1.00;;;;;;5094278;28;20917;-72
2021/12/01 06:01:45;;;;;;;0.80;0.70;;;7.10;1.00;;;;;;5094295;28;20528;-71
2021/12/01 06:04:14;;;;;;;1.10;0.60;;;7.10;11.70;;;;;;5094770;28;20551;-71
2021/12/01 06:06:40;;;;;;;0.77;0.70;;;7.20;1.00;;;;;;5094797;28;20436;-71
2021/12/01 06:09:07;;;;;;;1.00;0.73;;;7.10;1.00;;;;;;5094177;28;20441;-71
2021/12/01 06:11:34;;;;;;;2.33;0.90;;;7.20;46.00;;;;;;5095003;28;20539;-71
2021/12/01 06:14:01;;;;;;;1.07;0.70;;;7.20;1.00;;;;;;5094418;28;20440;-71
2021/12/01 06:16:28;;;;;;;0.90;0.70;;;7.20;1.00;;;;;;5094869;28;20504;-71
2021/12/01 06:18:55;;;;;;;1.00;0.90;;;7.30;1.00;;;;;;5094949;28;20519;-71
2021/12/01 06:21:23;;;;;;;1.23;0.70;;;7.30;1.00;;;;;;5094274;28;20520;-70
2021/12/01 06:23:50;;;;;;;1.20;0.90;;;7.30;1.00;;;;;;5094775;28;20527;-71
2021/12/01 06:26:17;;;;;;;1.30;0.70;;;7.30;1.00;;;;;;5093808;28;20531;-71
2021/12/01 06:28:44;;;;;;;1.23;0.70;;;7.40;1.00;;;;;;5094378;28;20494;-71
2021/12/01 06:31:11;;;;;;;1.23;0.90;;;7.40;1.00;;;;;;5093702;28;20444;-70
2021/12/01 06:33:38;;;;;;;0.90;0.70;;;7.40;99.90;;;;;;5094386;28;20506;-71
2021/12/01 06:36:06;;;;;;;1.50;0.87;;;7.50;99.90;;;;;;5094043;28;20419;-70
2021/12/01 06:38:34;;;;;;;0.70;0.57;;;7.40;1.00;;;;;;5094500;28;20540;-71
2021/12/01 06:41:01;;;;;;;1.03;0.77;;;7.40;99.90;;;;;;5094166;28;20796;-70
2021/12/01 06:43:28;;;;;;;1.37;0.60;;;7.50;1.00;;;;;;5094302;28;20440;-71
2021/12/01 06:45:55;;;;;;;0.70;0.50;;;7.40;1.00;;;;;;5093749;28;20925;-71
2021/12/01 06:48:28;;;;;;;0.80;0.70;;;7.50;99.90;;;;;;5093150;28;20440;-71
2021/12/01 06:50:55;;;;;;;4.43;0.80;;;7.50;99.90;;;;;;5094361;28;20507;-71
2021/12/01 06:53:22;;;;;;;0.70;0.60;;;7.50;1.00;;;;;;5093603;28;20537;-71
2021/12/01 06:55:51;;;;;;;0.87;0.77;;;7.50;99.90;;;;;;5093501;28;20480;-71
2021/12/01 06:58:17;;;;;;;0.83;0.70;;;7.50;99.90;;;;;;5093057;28;20488;-71
2021/12/01 07:00:44;;;;;;;0.80;0.53;;;7.50;99.90;;;;;;5094046;28;20900;-71
2021/12/01 07:03:11;;;;;;;1.37;0.70;;;7.50;24.00;;;;;;5093041;28;20531;-71
2021/12/01 07:05:38;;;;;;;0.70;0.60;;;7.60;99.90;;;;;;5093759;28;20436;-71
2021/12/01 07:08:06;;;;;;;4.20;0.87;;;7.60;1.00;;;;;;5093231;28;20527;-71
2021/12/01 07:10:33;;;;;;;0.80;0.53;;;7.60;1.00;;;;;;5093829;28;20451;-71
2021/12/01 07:13:01;;;;;;;1.07;0.67;;;7.60;99.90;;;;;;5093483;28;20440;-71
2021/12/01 07:15:28;;;;;;;2.60;1.33;;;7.70;99.90;;;;;;5093729;28;20480;-70
2021/12/01 07:17:55;;;;;;;0.83;0.70;;;7.70;99.90;;;;;;5093903;28;20823;-71
2021/12/01 07:20:22;;;;;;;1.57;0.60;;;7.70;99.90;;;;;;5093196;28;21076;-71
2021/12/01 07:22:49;;;;;;;1.70;0.60;;;7.70;99.90;;;;;;5093706;28;20437;-71
2021/12/01 07:25:16;;;;;;;1.43;0.70;;;7.70;99.90;;;;;;5092634;28;20451;-71
2021/12/01 07:27:43;;;;;;;0.90;0.60;;;7.80;1.00;;;;;;5093366;28;20441;-71
2021/12/01 07:30:12;;;;;;;2.50;1.00;;;7.80;1.00;;;;;;5092487;28;20445;-71
2021/12/01 07:32:39;;;;;;;0.80;0.60;;;7.80;1.00;;;;;;5093401;28;20457;-71
2021/12/01 07:35:06;;;;;;;0.70;0.53;;;7.80;1.00;;;;;;5092314;28;20478;-71
2021/12/01 07:37:33;;;;;;;1.07;0.80;;;7.90;1.00;;;;;;5093345;28;20835;-71
2021/12/01 07:40:00;;;;;;;1.20;0.90;;;7.90;99.90;;;;;;5093501;28;20536;-71
2021/12/01 07:42:27;;;;;;;0.90;0.70;;;8.00;1.00;;;;;;5092518;28;20523;-71
2021/12/01 07:44:54;;;;;;;1.20;0.70;;;7.90;1.00;;;;;;5093272;28;20444;-71
2021/12/01 07:47:22;;;;;;;1.13;0.70;;;7.90;99.90;;;;;;5092466;28;20455;-71
2021/12/01 07:49:49;;;;;;;1.63;0.77;;;8.00;99.90;;;;;;5092858;28;20540;-71
2021/12/01 07:52:16;;;;;;;1.90;1.20;;;8.10;99.90;;;;;;5092056;28;21032;-72
2021/12/01 07:54:43;;;;;;;0.90;0.70;;;8.10;99.90;;;;;;5093114;28;20436;-71
2021/12/01 07:57:10;;;;;;;0.77;0.60;;;8.20;11.10;;;;;;5092257;28;20476;-71
2021/12/01 07:59:37;;;;;;;1.27;0.87;;;8.20;99.90;;;;;;5092816;28;20531;-72
2021/12/01 08:02:04;;;;;;;0.90;0.70;;;8.10;99.90;;;;;;5092547;28;20441;-71
2021/12/01 08:04:34;;;;;;;12.23;2.37;;;8.20;99.90;;;;;;5092594;28;20527;-71
2021/12/01 08:07:01;;;;;;;8.00;1.17;;;8.20;99.90;;;;;;5092727;28;20479;-71
2021/12/01 08:09:28;;;;;;;0.70;0.60;;;8.20;99.90;;;;;;5090967;28;20472;-72
2021/12/01 08:11:56;;;;;;;1.27;1.00;;;8.20;1.00;;;;;;5092739;28;20524;-71
2021/12/01 08:14:23;;;;;;;1.20;0.80;;;8.20;21.70;;;;;;5091949;28;20447;-71
2021/12/01 08:16:51;;;;;;;1.47;0.90;;;8.20;1.00;;;;;;5092216;28;20940;-71
2021/12/01 08:19:18;;;;;;;1.30;0.80;;;8.20;99.90;;;;;;5091762;28;20452;-71
2021/12/01 08:21:49;;;;;;;1.17;0.70;;;8.20;99.90;;;;;;5092441;28;20535;-71
2021/12/01 08:24:17;;;;;;;1.00;0.70;;;8.20;99.90;;;;;;5091626;28;20951;-71
2021/12/01 08:26:45;;;;;;;1.20;0.87;;;8.30;99.90;;;;;;5092196;28;20468;-71
2021/12/01 08:29:12;;;;;;;0.60;0.50;;;8.30;1.00;;;;;;5091557;28;20510;-71
2021/12/01 08:31:40;;;;;;;2.90;1.00;;;8.40;99.90;;;;;;5091998;28;20476;-71
2021/12/01 08:34:07;;;;;;;1.13;0.70;;;8.30;1.00;;;;;;5091736;28;20996;-69
2021/12/01 08:36:34;;;;;;;2.10;0.90;;;8.30;1.00;;;;;;5092289;28;20472;-71
2021/12/01 08:39:05;;;;;;;1.20;0.60;;;8.40;99.90;;;;;;5091790;28;20969;-71
2021/12/01 08:41:32;;;;;;;0.87;0.60;;;8.40;99.90;;;;;;5091822;28;20451;-71
2021/12/01 08:43:59;;;;;;;1.00;0.50;;;8.40;1.00;;;;;;5091652;28;20447;-71
2021/12/01 08:46:26;;;;;;;1.00;0.63;;;8.50;99.90;;;;;;5091171;28;20440;-71
2021/12/01 08:48:53;;;;;;;1.83;0.80;;;8.50;99.90;;;;;;5092017;28;20502;-71
2021/12/01 08:51:22;;;;;;;0.97;0.60;;;;;;;;;;5091405;28;20457;-72
2021/12/01 08:53:49;;;;;;;0.60;0.40;;;;;;;;;;5091592;28;20940;-72
2021/12/01 08:56:18;;;;;;;0.80;0.50;;;;;;;;;;5091105;28;20499;-72
2021/12/01 08:58:45;;;;;;;0.77;0.70;;;;;;;;;;5091922;28;20839;-71
2021/12/01 09:01:13;;;;;;;0.70;0.60;;;;;;;;;;5091337;28;20564;-71
2021/12/01 09:03:40;;;;;;;1.47;0.40;;;;;;;;;;5091980;28;20452;-71
2021/12/01 09:06:08;;;;;;;0.90;0.70;;;;;;;;;;5091785;28;20559;-72
2021/12/01 09:08:35;;;;;;;0.77;0.53;;;;;;;;;;5091769;28;20939;-72
2021/12/01 09:11:04;;;;;;;1.37;0.80;;;;;;;;;;5091795;28;20547;-71
2021/12/01 09:13:35;;;;;;;0.80;0.60;;;;;;;;;;5090798;28;20436;-71
2021/12/01 09:16:03;;;;;;;2.70;0.90;;;;;;;;;;5091725;28;20425;-72
2021/12/01 09:18:30;;;;;;;2.50;0.80;;;;;;;;;;5090669;28;20970;-71
2021/12/01 09:20:58;;;;;;;1.73;0.80;;;;;;;;;;5090918;28;20440;-71
2021/12/01 09:23:25;;;;;;;1.20;1.00;;;;;;;;;;5090559;28;20502;-71
2021/12/01 09:25:52;;;;;;;1.30;0.93;;;;;;;;;;5091434;28;20524;-72
2021/12/01 09:28:22;;;;;;;0.83;0.60;;;;;;;;;;5090415;28;20444;-71
2021/12/01 09:30:51;;;;;;;0.90;0.60;;;;;;;;;;5091309;28;20432;-71
2021/12/01 09:33:18;;;;;;;1.30;0.83;;;;;;;;;;5090137;28;20933;-72
2021/12/01 09:35:46;;;;;;;1.20;0.70;;;;;;;;;;5091589;28;20425;-71
2021/12/01 09:38:15;;;;;;;1.03;0.63;;;;;;;;;;5090559;28;20482;-71
2021/12/01 09:40:46;;;;;;;0.83;0.60;;;;;;;;;;5091162;28;20448;-72
2021/12/01 09:43:13;;;;;;;1.27;0.60;;;;;;;;;;5090508;28;20909;-72
2021/12/01 09:45:40;;;;;;;0.70;0.50;;;;;;;;;;5091326;28;20532;-72
2021/12/01 09:48:08;;;;;;;0.70;0.50;;;;;;;;;;5091192;28;20451;-72
2021/12/01 09:50:36;;;;;;;1.27;0.70;;;;;;;;;;5090786;28;20763;-72
2021/12/01 09:53:03;;;;;;;1.00;0.87;;;;;;;;;;5091099;28;20528;-71
2021/12/01 09:55:30;;;;;;;1.53;0.60;;;;;;;;;;5090765;28;20798;-72
2021/12/01 09:58:02;;;;;;;0.70;0.60;;;;;;;;;;5090764;28;20482;-71
2021/12/01 10:00:30;;;;;;;0.80;0.57;;;;;;;;;;5090656;28;20444;-71
2021/12/01 10:02:57;;;;;;;0.60;0.50;;;;;;;;;;5090953;28;20932;-71
2021/12/01 10:05:43;;;;;;;1.53;0.83;;;;;;;;;;5090567;28;20781;-71
2021/12/01 10:08:14;;;;;;;0.70;0.50;;;;;;;;;;5090879;28;20475;-71
2021/12/01 10:10:41;;;;;;;1.73;0.70;;;;;;;;;;5091273;28;20844;-71
2021/12/01 10:13:09;;;;;;;0.70;0.60;;;;;;;;;;5090755;28;20448;-72
2021/12/01 10:15:36;;;;;;;1.17;0.80;;;;;;;;;;5090102;28;20446;-72
2021/12/01 10:18:13;;;;;;;0.80;0.70;;;;;;;;;;5090609;28;20481;-72
2021/12/01 10:20:40;;;;;;;0.87;0.60;;;;;;;;;;5090924;28;20445;-74
2021/12/01 10:23:08;;;;;;;1.27;0.50;;;;;;;;;;5090884;28;20455;-72
2021/12/01 10:25:37;;;;;;;0.50;0.40;;;;;;;;;;5090129;28;20541;-72
2021/12/01 10:28:04;;;;;;;0.80;0.50;;;;;;;;;;5090795;28;20441;-71
2021/12/01 10:30:42;;;;;;;1.83;0.90;;;;;;;;;;5090383;28;20846;-72
2021/12/01 10:33:10;;;;;;;0.77;0.60;;;;;;;;;;5094550;28;20476;-71
2021/12/01 10:35:38;;;;;;;5.77;1.47;;;;;;;;;;5093642;28;21008;-71
2021/12/01 10:38:06;;;;;;;0.90;0.57;;;;;;;;;;5094134;28;20486;-72
2021/12/01 10:40:34;;;;;;;0.80;0.53;;;;;;;;;;5093867;28;20503;-72
2021/12/01 10:43:04;;;;;;;0.70;0.40;;;;;;;;;;5094466;28;20526;-71
2021/12/01 10:45:32;;;;;;;0.70;0.50;;;;;;;;;;5093539;28;20445;-72
2021/12/01 10:48:00;;;;;;;1.20;0.70;;;8.50;1.00;;;;;;5093893;28;20532;-72
2021/12/01 10:50:30;;;;;;;0.87;0.60;;;10.50;1.00;;;;;;5093678;28;20851;-72
2021/12/01 10:53:03;;;;;;;1.00;0.70;;;;;;;;;;5094085;28;21035;-72
2021/12/01 10:55:32;;;;;;;0.60;0.50;;;;;;;;;;5093624;28;20866;-72
2021/12/01 10:58:00;;;;;;;1.20;0.63;;;;;;;;;;5093834;28;20968;-71
2021/12/01 11:00:29;;;;;;;0.80;0.60;;;;;;;;;;5093541;28;20536;-72
2021/12/01 11:03:06;;;;;;;0.60;0.50;;;;;;;;;;5094271;28;20484;-72
2021/12/01 11:05:33;;;;;;;0.60;0.50;;;;;;;;;;5093594;28;20777;-71
2021/12/01 11:08:10;;;;;;;1.03;0.60;;;;;;;;;;5093907;28;20770;-72
2021/12/01 11:10:38;;;;;;;4.83;0.57;;;;;;;;;;5093449;28;20437;-72
2021/12/01 11:13:05;;;;;;;0.97;0.87;;;;;;;;;;5093608;28;20535;-71
2021/12/01 11:15:36;;;;;;;0.90;0.60;;;;;;;;;;5092976;28;20476;-71
2021/12/01 11:18:08;;;;;;;1.10;0.50;;;;;;;;;;5093777;28;20480;-71
2021/12/01 11:20:40;;;;;;;1.23;0.90;;;;;;;;;;5092488;28;20464;-71
2021/12/01 11:23:12;;;;;;;0.60;0.50;;;;;;;;;;5093443;28;20445;-72
2021/12/01 11:25:40;;;;;;;0.90;0.60;;;;;;;;;;5092767;28;20819;-73
2021/12/01 11:28:09;;;;;;;0.90;0.70;;;;;;;;;;5093580;28;20441;-71
2021/12/01 11:30:38;;;;;;;1.20;0.70;;;;;;;;;;5092527;28;20437;-71
2021/12/01 11:33:05;;;;;;;1.10;0.63;;;;;;;;;;5093482;28;20543;-71
2021/12/01 11:35:32;;;;;;;10.00;0.70;;;;;;;;;;5092384;28;20571;-72
2021/12/01 11:38:00;;;;;;;1.10;0.60;;;;;;;;;;5093308;28;20440;-72
2021/12/01 11:40:28;;;;;;;1.93;1.37;;;;;;;;;;5092770;28;20855;-72
2021/12/01 11:42:56;;;;;;;1.87;1.17;;;;;;;;;;5093132;28;20535;-72
2021/12/01 11:45:23;;;;;;;2.10;1.00;;;;;;;;;;5092664;28;20863;-72
2021/12/01 11:47:53;;;;;;;1.10;0.60;;;;;;;;;;5093260;28;20535;-72
2021/12/01 11:50:26;;;;;;;1.70;0.70;;;;;;;;;;5092201;28;20480;-71
2021/12/01 11:52:57;;;;;;;1.00;0.70;;;;;;;;;;5093071;28;20519;-71
2021/12/01 11:55:38;;;;;;;0.83;0.50;;;;;;;;;;5092426;28;20504;-72
2021/12/01 11:58:06;;;;;;;1.03;0.70;;;;;;;;;;5092498;28;20459;-72
2021/12/01 12:00:45;;;;;;;1.47;0.83;;;;;;;;;;5092266;28;20447;-72
2021/12/01 12:03:26;;;;;;;0.80;0.70;;;;;;;;;;5092464;28;20978;-73
2021/12/01 12:06:12;;;;;;;0.77;0.60;;;;;;;;;;5092616;28;20432;-72
2021/12/01 12:08:54;;;;;;;0.80;0.60;;;;;;;;;;5091872;28;20532;-72
2021/12/01 12:11:36;;;;;;;1.10;0.50;;;;;;;;;;5089077;28;20448;-71
2021/12/01 12:14:05;;;;;;;2.83;0.57;;;;;;;;;;5092711;28;20878;-72
2021/12/01 12:16:32;;;;;;;1.10;0.83;;;;;;;;;;5091657;28;20444;-72
2021/12/01 12:19:01;;;;;;;0.70;0.60;;;;;;;;;;5092034;28;20476;-72
2021/12/01 12:21:36;;;;;;;0.87;0.57;;;;;;;;;;5091946;28;20472;-72
2021/12/01 12:24:05;;;;;;;0.97;0.90;;;;;;;;;;5092249;28;20432;-72
2021/12/01 12:26:34;;;;;;;1.03;0.63;;;;;;;;;;5091812;28;20538;-72
2021/12/01 12:29:02;;;;;;;1.37;0.90;;;;;;;;;;5092425;28;20843;-71
2021/12/01 12:31:31;;;;;;;0.93;0.67;;;;;;;;;;5091374;28;20487;-72
2021/12/01 12:34:01;;;;;;;0.97;0.70;;;;;;;;;;5092222;28;20996;-72
2021/12/01 12:36:44;;;;;;;1.07;0.90;;;;;;;;;;5091774;28;20835;-72
2021/12/01 12:39:13;;;;;;;2.70;1.00;;;;;;;;;;5092193;28;20500;-72
2021/12/01 12:41:57;;;;;;;1.67;0.93;;;;;;;;;;5091364;28;20852;-72
2021/12/01 12:44:28;;;;;;;3.10;1.07;;;;;;;;;;5091161;28;20452;-72
2021/12/01 12:47:02;;;;;;;3.40;1.27;;;;;;;;;;5091768;28;20443;-71
2021/12/01 12:49:37;;;;;;;0.90;0.73;;;;;;;;;;5091287;28;20437;-72
2021/12/01 12:52:19;;;;;;;3.10;0.90;;;;;;;;;;5092037;28;20470;-72
2021/12/01 12:54:47;;;;;;;1.07;0.80;;;;;;;;;;5090468;28;20436;-73
2021/12/01 12:57:16;;;;;;;1.20;1.00;;;;;;;;;;5091875;28;20447;-72
2021/12/01 12:59:43;;;;;;;1.00;0.90;;;;;;;;;;5091368;28;20495;-71
2021/12/01 13:02:31;;;;;;;4.73;0.97;;;;;;;;;;5092307;28;20483;-72
2021/12/01 13:05:07;;;;;;;1.67;0.90;;;;;;;;;;5092842;28;20444;-72
2021/12/01 13:07:47;;;;;;;1.57;0.80;;;;;;;;;;5091235;28;20913;-72
2021/12/01 13:10:20;;;;;;;1.00;0.80;;;;;;;;;;5091398;28;20480;-72
2021/12/01 13:12:49;;;;;;;1.93;0.83;;;;;;;;;;5090811;28;20482;-72
2021/12/01 13:15:20;;;;;;;0.73;0.60;;;;;;;;;;5091321;28;20929;-72
2021/12/01 13:17:48;;;;;;;1.33;0.80;;;;;;;;;;5090971;28;20452;-71
2021/12/01 13:20:15;;;;;;;0.97;0.70;;;;;;;;;;5091480;28;20563;-71
2021/12/01 13:22:42;;;;;;;1.00;0.70;;;;;;;;;;5090965;28;20515;-72
2021/12/01 13:25:17;;;;;;;2.60;0.73;;;;;;;;;;5091549;28;20809;-71
2021/12/01 13:27:46;;;;;;;2.70;1.00;;;;;;;;;;5090695;28;20627;-72
2021/12/01 13:30:13;;;;;;;3.10;0.70;;;;;;;;;;5091559;28;20527;-72
2021/12/01 13:32:41;;;;;;;1.73;1.10;;;;;;;;;;5090401;28;20452;-72
2021/12/01 13:35:08;;;;;;;1.07;0.80;;;;;;;;;;5090972;28;20476;-72
2021/12/01 13:37:35;;;;;;;1.63;0.67;;;;;;;;;;5090448;28;20871;-72
2021/12/01 13:40:09;;;;;;;0.70;0.60;;;;;;;;;;5091296;28;20508;-71
2021/12/01 13:42:36;;;;;;;0.60;0.60;;;;;;;;;;5090759;28;20507;-72
2021/12/01 13:45:05;;;;;;;0.80;0.60;;;;;;;;;;5091022;28;20527;-72
2021/12/01 13:47:34;;;;;;;1.50;1.10;;;;;;;;;;5090314;28;20441;-72